Time;durP1;ratioP1;P1;durP2;ratioP2;P2;SDS_P1;SDS_P2;PMS_P1;PMS_P2;Temp;Humidity;BMP_temperature;BMP_pressure;BME280_temperature;BME280_humidity;BME280_pressure;Samples;Min_cycle;Max_cycle;Signal;HPM_P1;HPM_P2
2022/08/19 00:01:51;;;;;;;7.45;3.60;;;19.90;67.00;;;;;;4936845;28;20594;-67
2022/08/19 00:04:22;;;;;;;7.13;3.83;;;19.80;67.00;;;;;;4937019;28;20513;-67
2022/08/19 00:06:49;;;;;;;5.03;2.90;;;19.80;67.20;;;;;;4936910;28;20873;-67
2022/08/19 00:09:18;;;;;;;6.63;3.65;;;19.70;67.20;;;;;;4936200;28;20506;-67
2022/08/19 00:11:46;;;;;;;5.97;3.58;;;19.70;67.30;;;;;;4936843;28;20043;-67
2022/08/19 00:14:16;;;;;;;5.82;3.10;;;19.70;67.30;;;;;;4936657;28;20044;-67
2022/08/19 00:16:46;;;;;;;5.70;2.87;;;19.70;67.50;;;;;;4936713;28;20087;-67
2022/08/19 00:19:14;;;;;;;6.75;2.72;;;19.70;67.90;;;;;;4936563;28;20275;-67
2022/08/19 00:21:43;;;;;;;4.63;2.70;;;19.60;68.00;;;;;;4936574;28;20083;-67
2022/08/19 00:24:12;;;;;;;4.63;2.90;;;19.50;68.30;;;;;;4953818;28;20055;-67
2022/08/19 00:26:39;;;;;;;4.53;2.38;;;19.40;68.40;;;;;;4954065;28;20131;-67
2022/08/19 00:29:09;;;;;;;4.50;1.93;;;19.30;68.70;;;;;;4936005;28;20116;-67
2022/08/19 00:31:36;;;;;;;5.40;2.40;;;19.20;69.00;;;;;;4936733;28;20286;-67
2022/08/19 00:34:04;;;;;;;4.63;2.63;;;19.20;69.00;;;;;;4936545;28;20051;-66
2022/08/19 00:36:32;;;;;;;6.18;2.97;;;19.20;68.90;;;;;;4936211;28;20059;-67
2022/08/19 00:39:01;;;;;;;6.45;3.25;;;19.10;68.80;;;;;;4936005;28;20044;-67
2022/08/19 00:41:28;;;;;;;6.27;3.43;;;19.10;68.70;;;;;;4936107;28;20136;-67
2022/08/19 00:44:03;;;;;;;5.65;3.40;;;19.10;68.60;;;;;;4936566;28;20685;-66
2022/08/19 00:46:31;;;;;;;7.10;2.92;;;19.10;68.60;;;;;;4936412;28;20134;-67
2022/08/19 00:48:59;;;;;;;5.78;2.90;;;19.10;68.60;;;;;;4952797;28;20060;-67
2022/08/19 00:51:28;;;;;;;5.10;2.58;;;19.10;68.60;;;;;;4936322;28;20499;-67
2022/08/19 00:53:55;;;;;;;5.37;2.43;;;19.10;68.60;;;;;;4953473;28;20055;-66
2022/08/19 00:56:26;;;;;;;4.80;2.30;;;19.10;68.50;;;;;;4936339;28;20279;-67
2022/08/19 00:58:55;;;;;;;4.47;2.30;;;19.00;68.50;;;;;;4951352;28;20060;-67
2022/08/19 01:01:22;;;;;;;3.70;1.77;;;19.00;68.60;;;;;;4953253;28;20055;-66
2022/08/19 01:03:49;;;;;;;4.50;2.50;;;19.00;68.90;;;;;;4953346;28;20502;-67
2022/08/19 01:06:16;;;;;;;5.03;2.73;;;19.00;69.00;;;;;;4936281;28;20048;-66
2022/08/19 01:08:43;;;;;;;4.97;2.13;;;18.90;69.20;;;;;;4936045;28;20264;-67
2022/08/19 01:11:10;;;;;;;4.97;2.25;;;18.90;69.20;;;;;;4935717;28;20520;-67
2022/08/19 01:13:38;;;;;;;5.28;2.03;;;18.90;69.20;;;;;;4936133;28;20056;-67
2022/08/19 01:16:10;;;;;;;3.63;1.60;;;18.80;69.30;;;;;;4936044;28;20059;-67
2022/08/19 01:18:40;;;;;;;4.23;1.80;;;18.70;69.30;;;;;;4936090;28;20062;-66
2022/08/19 01:21:15;;;;;;;4.35;2.15;;;18.70;69.40;;;;;;4935449;28;20296;-67
2022/08/19 01:23:44;;;;;;;6.18;2.85;;;18.60;69.50;;;;;;4953165;28;20552;-67
2022/08/19 01:26:13;;;;;;;5.10;2.78;;;18.60;69.60;;;;;;4935643;28;20048;-67
2022/08/19 01:28:40;;;;;;;4.95;2.40;;;18.60;69.60;;;;;;4952890;28;20055;-67
2022/08/19 01:31:11;;;;;;;4.20;1.63;;;18.60;69.60;;;;;;4935786;28;20051;-66
2022/08/19 01:33:38;;;;;;;4.35;1.90;;;18.60;69.50;;;;;;4935313;28;20284;-67
2022/08/19 01:36:08;;;;;;;3.90;1.58;;;18.60;69.30;;;;;;4935460;28;20052;-67
2022/08/19 01:38:38;;;;;;;4.57;1.58;;;18.50;69.30;;;;;;4952741;28;21024;-67
2022/08/19 01:41:06;;;;;;;3.40;1.40;;;18.50;69.50;;;;;;4919261;28;20051;-67
2022/08/19 01:43:34;;;;;;;3.57;1.37;;;18.40;69.80;;;;;;4935730;28;20171;-67
2022/08/19 01:46:01;;;;;;;6.50;1.20;;;18.40;69.80;;;;;;4952885;28;20299;-67
2022/08/19 01:48:29;;;;;;;3.70;0.98;;;18.30;69.70;;;;;;4952957;28;20075;-66
2022/08/19 01:50:56;;;;;;;2.30;0.70;;;18.30;69.70;;;;;;4951943;28;20066;-67
2022/08/19 01:53:23;;;;;;;3.08;0.90;;;18.30;69.60;;;;;;4935133;28;20047;-67
2022/08/19 01:55:51;;;;;;;3.30;1.00;;;18.30;69.60;;;;;;4935170;28;20062;-67
2022/08/19 01:58:23;;;;;;;3.20;0.90;;;18.20;69.70;;;;;;4951337;28;20279;-67
2022/08/19 02:00:50;;;;;;;3.78;1.00;;;18.20;70.00;;;;;;4952108;28;20159;-67
2022/08/19 02:03:18;;;;;;;3.97;1.10;;;18.10;70.10;;;;;;4935448;28;20542;-66
2022/08/19 02:05:45;;;;;;;3.63;1.05;;;18.10;70.00;;;;;;4935113;28;20047;-67
2022/08/19 02:08:13;;;;;;;3.50;1.03;;;18.10;69.90;;;;;;4935258;28;20043;-67
2022/08/19 02:10:42;;;;;;;3.00;0.90;;;18.00;70.00;;;;;;4954053;28;20252;-66
2022/08/19 02:13:09;;;;;;;4.55;1.55;;;18.00;69.80;;;;;;4955823;28;20060;-66
2022/08/19 02:15:38;;;;;;;4.07;1.50;;;18.00;69.90;;;;;;4938917;28;20604;-67
2022/08/19 02:18:05;;;;;;;4.82;2.20;;;18.00;70.20;;;;;;4955538;28;20111;-67
2022/08/19 02:20:32;;;;;;;5.33;2.00;;;18.00;70.30;;;;;;4937897;28;20048;-67
2022/08/19 02:22:58;;;;;;;4.18;2.15;;;18.00;70.20;;;;;;4955912;28;20268;-67
2022/08/19 02:25:25;;;;;;;4.72;2.50;;;18.00;70.10;;;;;;4955741;28;20043;-67
2022/08/19 02:27:53;;;;;;;4.68;2.30;;;17.90;70.10;;;;;;4938347;28;20058;-67
2022/08/19 02:30:21;;;;;;;4.55;2.60;;;17.90;70.30;;;;;;4937859;28;20048;-66
2022/08/19 02:32:49;;;;;;;6.13;2.70;;;17.80;70.40;;;;;;4954420;28;20534;-67
2022/08/19 02:35:16;;;;;;;3.58;1.60;;;17.80;70.60;;;;;;4938396;28;20284;-67
2022/08/19 02:40:29;;;;;;;5.30;1.30;;;17.80;70.80;;;;;;4955587;28;20055;-66
2022/08/19 02:42:57;;;;;;;4.32;1.60;;;17.70;71.00;;;;;;4938285;28;20052;-66
2022/08/19 02:45:24;;;;;;;4.40;2.20;;;17.70;71.10;;;;;;4955457;28;20052;-67
2022/08/19 02:47:52;;;;;;;5.65;2.28;;;17.60;71.20;;;;;;4938701;28;20351;-66
2022/08/19 02:50:19;;;;;;;5.47;2.10;;;17.60;71.40;;;;;;4937774;28;20112;-67
2022/08/19 02:52:46;;;;;;;4.80;1.95;;;17.60;71.40;;;;;;4938275;28;20059;-67
2022/08/19 02:55:13;;;;;;;5.38;2.55;;;17.50;71.30;;;;;;4938276;28;20514;-66
2022/08/19 02:57:41;;;;;;;4.20;1.70;;;17.50;71.40;;;;;;4938066;28;20150;-67
2022/08/19 03:00:11;;;;;;;6.68;2.10;;;17.50;71.60;;;;;;4937507;28;20267;-67
2022/08/19 03:02:38;;;;;;;5.13;2.38;;;17.50;71.70;;;;;;4953987;28;20130;-66
2022/08/19 03:05:08;;;;;;;5.00;1.65;;;17.50;71.70;;;;;;4955419;28;20060;-67
2022/08/19 03:07:35;;;;;;;6.13;2.10;;;17.40;71.70;;;;;;4937834;28;20051;-67
2022/08/19 03:10:02;;;;;;;5.47;1.37;;;17.40;71.60;;;;;;4937436;28;20059;-66
2022/08/19 03:12:29;;;;;;;4.10;1.60;;;17.40;71.50;;;;;;4955140;28;20260;-66
2022/08/19 03:15:22;;;;;;;10.75;1.90;;;17.40;71.50;;;;;;4939540;28;20044;-67
2022/08/19 03:17:49;;;;;;;5.10;2.13;;;17.50;71.10;;;;;;4953805;28;20066;-67
2022/08/19 03:20:17;;;;;;;5.10;2.03;;;17.40;71.50;;;;;;4937543;28;20052;-66
2022/08/19 03:22:44;;;;;;;6.07;2.57;;;17.40;71.50;;;;;;4937142;28;20048;-66
2022/08/19 03:25:11;;;;;;;4.68;2.42;;;17.40;71.50;;;;;;4954783;28;20374;-66
2022/08/19 03:27:38;;;;;;;5.28;2.60;;;17.40;71.50;;;;;;4953369;28;20399;-66
2022/08/19 03:30:06;;;;;;;4.65;1.80;;;17.40;71.50;;;;;;4937374;28;20821;-66
2022/08/19 03:32:33;;;;;;;15.30;2.00;;;17.40;71.50;;;;;;4954643;28;20051;-66
2022/08/19 03:35:00;;;;;;;3.87;1.53;;;17.40;71.40;;;;;;4954757;28;20520;-66
2022/08/19 03:37:28;;;;;;;3.20;1.58;;;17.40;71.50;;;;;;4937540;28;20349;-66
2022/08/19 03:39:55;;;;;;;4.18;1.70;;;17.30;71.70;;;;;;4937536;28;20040;-66
2022/08/19 03:42:22;;;;;;;5.85;2.03;;;17.20;71.90;;;;;;4954580;28;21109;-66
2022/08/19 03:44:49;;;;;;;5.72;3.05;;;17.20;72.00;;;;;;4954733;28;20188;-67
2022/08/19 03:47:16;;;;;;;8.20;3.90;;;17.20;72.20;;;;;;4954694;28;20111;-67
2022/08/19 03:49:44;;;;;;;7.75;3.80;;;17.20;72.20;;;;;;4936849;28;20328;-67
2022/08/19 03:52:11;;;;;;;6.65;3.42;;;17.20;72.30;;;;;;4936641;28;20124;-66
2022/08/19 03:54:39;;;;;;;7.07;3.03;;;17.20;72.30;;;;;;4954115;28;20134;-66
2022/08/19 03:57:08;;;;;;;5.30;2.60;;;17.20;72.30;;;;;;4954298;28;20089;-66
2022/08/19 03:59:38;;;;;;;4.33;2.20;;;17.10;72.40;;;;;;4937043;28;20427;-67
2022/08/19 04:02:09;;;;;;;5.28;2.10;;;17.10;72.50;;;;;;4954035;28;20259;-66
2022/08/19 04:04:37;;;;;;;4.20;1.90;;;17.00;72.60;;;;;;4957404;28;20063;-67
2022/08/19 04:07:04;;;;;;;6.05;2.83;;;17.00;72.70;;;;;;4937051;28;20048;-66
2022/08/19 04:09:31;;;;;;;6.50;2.92;;;16.90;72.90;;;;;;4953943;28;20530;-66
2022/08/19 04:11:59;;;;;;;7.03;2.93;;;16.90;73.00;;;;;;4936853;28;20493;-66
2022/08/19 04:14:29;;;;;;;4.60;2.40;;;16.90;73.20;;;;;;4953780;28;20742;-66
2022/08/19 04:16:57;;;;;;;5.38;2.38;;;16.80;73.40;;;;;;4954119;28;20068;-66
2022/08/19 04:19:24;;;;;;;4.70;1.85;;;16.70;73.50;;;;;;4936099;28;20549;-66
2022/08/19 04:21:54;;;;;;;4.80;2.28;;;16.70;73.70;;;;;;4954012;28;20537;-66
2022/08/19 04:24:22;;;;;;;5.73;2.93;;;16.60;73.80;;;;;;4954177;28;20155;-67
2022/08/19 04:26:50;;;;;;;6.57;3.63;;;16.70;73.90;;;;;;4936623;28;20272;-67
2022/08/19 04:29:22;;;;;;;7.55;3.60;;;16.70;74.00;;;;;;4953851;28;20055;-66
2022/08/19 04:31:49;;;;;;;7.05;3.78;;;16.60;74.00;;;;;;4936439;28;20597;-66
2022/08/19 04:34:21;;;;;;;6.78;3.45;;;16.60;74.00;;;;;;4936003;28;20138;-66
2022/08/19 04:36:50;;;;;;;6.00;3.23;;;16.50;74.00;;;;;;4936566;28;20127;-66
2022/08/19 04:39:20;;;;;;;7.55;3.55;;;16.40;74.10;;;;;;4936050;28;20264;-66
2022/08/19 04:44:34;;;;;;;7.18;3.28;;;16.40;74.50;;;;;;4936605;28;20499;-66
2022/08/19 04:47:03;;;;;;;4.60;2.33;;;16.40;74.50;;;;;;4936163;28;20047;-66
2022/08/19 04:49:30;;;;;;;4.17;1.70;;;16.40;74.60;;;;;;4953024;28;20055;-67
2022/08/19 04:51:56;;;;;;;5.53;1.55;;;16.30;74.50;;;;;;4953879;28;20264;-66
2022/08/19 04:54:25;;;;;;;5.70;2.28;;;16.20;74.50;;;;;;4936512;28;20043;-66
2022/08/19 04:56:53;;;;;;;6.40;3.10;;;16.20;74.70;;;;;;4952036;28;20490;-67
2022/08/19 04:59:21;;;;;;;6.38;2.83;;;16.20;74.80;;;;;;4936403;28;20063;-67
2022/08/19 05:01:50;;;;;;;5.07;2.33;;;16.20;74.90;;;;;;4951899;28;20145;-66
2022/08/19 05:04:31;;;;;;;4.35;2.03;;;16.20;75.00;;;;;;4937852;28;20290;-67
2022/08/19 05:06:58;;;;;;;5.93;2.30;;;16.20;74.70;;;;;;4952357;28;20056;-66
2022/08/19 05:09:25;;;;;;;4.75;2.17;;;16.20;74.60;;;;;;4935897;28;20115;-66
2022/08/19 05:11:52;;;;;;;5.00;1.70;;;16.20;74.60;;;;;;4953345;28;20494;-66
2022/08/19 05:14:20;;;;;;;4.63;1.13;;;16.20;74.70;;;;;;4936206;28;20054;-66
2022/08/19 05:16:49;;;;;;;4.70;1.85;;;16.20;74.90;;;;;;4936188;28;20262;-67
2022/08/19 05:24:45;;;;;;;7.60;3.30;;;16.10;75.10;;;;;;4934562;28;20067;-66
2022/08/19 05:27:11;;;;;;;7.83;3.53;;;16.10;75.30;;;;;;4950673;28;20447;-66
2022/08/19 05:29:38;;;;;;;9.23;4.03;;;16.10;75.50;;;;;;4904083;28;20259;-66
2022/08/19 05:32:08;;;;;;;9.02;4.20;;;16.20;75.50;;;;;;4950224;28;20130;-67
2022/08/19 05:34:35;;;;;;;8.18;3.70;;;16.20;75.50;;;;;;4954195;28;20550;-66
2022/08/19 05:37:04;;;;;;;8.88;3.83;;;16.20;75.50;;;;;;4971622;28;20122;-67
2022/08/19 05:39:34;;;;;;;8.63;3.93;;;16.20;75.40;;;;;;4960775;28;20055;-66
2022/08/19 05:42:03;;;;;;;8.63;4.47;;;16.20;75.50;;;;;;4950163;28;20298;-66
2022/08/19 05:44:33;;;;;;;10.57;5.13;;;16.30;75.40;;;;;;4952153;28;20051;-66
2022/08/19 05:47:01;;;;;;;9.95;5.75;;;16.30;75.50;;;;;;4952680;28;20056;-66
2022/08/19 05:49:30;;;;;;;10.57;5.72;;;16.30;75.70;;;;;;4936225;28;20492;-67
2022/08/19 05:51:59;;;;;;;11.53;6.17;;;16.40;76.20;;;;;;4970120;28;20623;-67
2022/08/19 05:54:26;;;;;;;13.55;7.13;;;16.40;76.30;;;;;;4969051;28;20349;-67
2022/08/19 05:56:54;;;;;;;6.32;3.60;;;16.40;76.80;;;;;;4970615;28;20058;-68
2022/08/19 05:59:21;;;;;;;9.32;4.63;;;16.40;77.20;;;;;;4971080;28;20499;-68
2022/08/19 06:01:51;;;;;;;12.30;7.20;;;16.40;77.70;;;;;;4970533;28;20533;-68
2022/08/19 06:04:19;;;;;;;13.77;7.67;;;16.40;78.30;;;;;;4953847;28;20059;-68
2022/08/19 06:06:48;;;;;;;11.40;6.28;;;16.40;79.00;;;;;;4952806;28;20358;-68
2022/08/19 06:09:15;;;;;;;12.15;6.90;;;16.40;79.40;;;;;;4968799;28;20059;-68
2022/08/19 06:11:45;;;;;;;18.25;10.05;;;16.40;79.60;;;;;;4953196;28;20166;-68
2022/08/19 06:14:14;;;;;;;18.73;10.85;;;16.50;80.10;;;;;;4953127;28;20067;-68
2022/08/19 06:16:43;;;;;;;19.57;10.67;;;16.50;80.30;;;;;;4952985;28;20055;-68
2022/08/19 06:19:15;;;;;;;19.98;11.32;;;16.60;80.60;;;;;;4952313;28;20293;-68
2022/08/19 06:21:46;;;;;;;19.60;10.80;;;16.60;80.90;;;;;;4953748;28;20066;-68
2022/08/19 06:24:16;;;;;;;20.90;11.90;;;16.70;81.20;;;;;;4954002;28;20079;-68
2022/08/19 06:26:46;;;;;;;19.38;11.32;;;16.70;81.30;;;;;;4971093;28;20067;-68
2022/08/19 06:29:15;;;;;;;21.00;11.93;;;16.80;81.60;;;;;;4953114;28;20600;-68
2022/08/19 06:31:44;;;;;;;20.20;11.90;;;16.90;81.90;;;;;;4953088;28;20260;-68
2022/08/19 06:34:12;;;;;;;20.25;11.98;;;16.90;82.00;;;;;;4952345;28;20047;-68
2022/08/19 06:36:41;;;;;;;20.88;12.25;;;17.00;82.20;;;;;;4951685;28;20061;-68
2022/08/19 06:39:11;;;;;;;21.48;12.25;;;17.00;82.60;;;;;;4952262;28;20054;-68
2022/08/19 06:41:42;;;;;;;21.47;12.50;;;17.20;82.70;;;;;;4952782;28;20050;-68
2022/08/19 06:44:18;;;;;;;22.40;13.20;;;17.20;83.00;;;;;;4937839;28;20272;-68
2022/08/19 06:46:45;;;;;;;21.58;12.18;;;17.30;83.10;;;;;;4952998;28;20055;-68
2022/08/19 06:49:13;;;;;;;19.92;12.18;;;17.40;83.50;;;;;;4969694;28;20515;-68
2022/08/19 06:51:42;;;;;;;20.48;11.43;;;17.50;83.90;;;;;;4952477;28;20138;-68
2022/08/19 06:54:10;;;;;;;23.50;12.70;;;17.50;84.50;;;;;;4970575;28;20055;-68
2022/08/19 06:56:39;;;;;;;19.85;11.38;;;17.60;84.50;;;;;;4970647;28;20310;-68
2022/08/19 06:59:08;;;;;;;22.83;12.38;;;17.70;84.70;;;;;;4956185;28;20047;-68
2022/08/19 07:01:37;;;;;;;19.80;12.10;;;17.80;84.70;;;;;;4973182;28;20066;-69
2022/08/19 07:04:05;;;;;;;16.92;10.93;;;17.80;84.90;;;;;;4956613;28;20043;-68
2022/08/19 07:06:32;;;;;;;20.13;12.20;;;17.90;85.00;;;;;;4956407;28;20979;-68
2022/08/19 07:08:59;;;;;;;20.67;12.57;;;18.00;84.90;;;;;;4956269;28;20283;-68
2022/08/19 07:11:27;;;;;;;19.75;12.30;;;18.00;84.90;;;;;;4956292;28;20127;-68
2022/08/19 07:13:55;;;;;;;21.10;12.25;;;18.10;85.00;;;;;;4974010;28;20051;-68
2022/08/19 07:16:22;;;;;;;21.08;11.50;;;18.20;85.50;;;;;;4974242;28;20051;-68
2022/08/19 07:18:50;;;;;;;19.60;11.60;;;18.30;85.60;;;;;;4956697;28;20592;-68
2022/08/19 07:21:20;;;;;;;20.20;11.63;;;18.40;85.30;;;;;;4974228;28;20259;-68
2022/08/19 07:23:48;;;;;;;16.25;10.73;;;18.40;85.50;;;;;;4974303;28;20059;-68
2022/08/19 07:26:16;;;;;;;18.00;11.45;;;18.50;85.50;;;;;;4973860;28;20055;-68
2022/08/19 07:28:44;;;;;;;16.77;10.90;;;18.60;85.70;;;;;;4956391;28;20189;-68
2022/08/19 07:31:14;;;;;;;14.73;9.67;;;18.70;85.40;;;;;;4973416;28;20082;-68
2022/08/19 07:33:42;;;;;;;16.02;9.25;;;18.80;85.20;;;;;;4974097;28;20685;-69
2022/08/19 07:36:12;;;;;;;17.25;10.75;;;18.90;85.10;;;;;;4956480;28;20498;-69
2022/08/19 07:38:40;;;;;;;16.08;9.52;;;19.00;85.00;;;;;;4955980;28;20553;-68
2022/08/19 07:41:08;;;;;;;15.77;10.93;;;19.10;84.70;;;;;;4954107;28;20055;-69
2022/08/19 07:43:35;;;;;;;17.07;10.63;;;19.20;84.50;;;;;;4954961;28;20094;-68
2022/08/19 07:46:02;;;;;;;15.10;8.82;;;19.20;84.40;;;;;;4906711;28;20283;-69
2022/08/19 07:48:31;;;;;;;16.10;9.82;;;19.30;84.20;;;;;;4972508;28;20087;-68
2022/08/19 07:51:01;;;;;;;15.40;9.98;;;19.40;84.00;;;;;;4953075;28;20053;-69
2022/08/19 07:53:29;;;;;;;16.08;9.77;;;19.40;83.90;;;;;;4954952;28;20055;-68
2022/08/19 07:56:03;;;;;;;16.67;7.90;;;19.50;83.60;;;;;;4972550;28;20058;-68
2022/08/19 07:58:32;;;;;;;13.05;8.52;;;19.50;83.30;;;;;;4955208;28;20263;-69
2022/08/19 08:01:00;;;;;;;13.10;7.70;;;19.60;83.20;;;;;;4972210;28;20062;-69
2022/08/19 08:09:11;;;;;;;15.57;8.97;;;19.80;82.60;;;;;;4960390;28;20058;-75
2022/08/19 08:11:39;;;;;;;13.23;8.65;;;19.90;82.40;;;;;;4970157;28;20271;-69
2022/08/19 08:14:06;;;;;;;17.20;10.43;;;20.00;82.20;;;;;;4971509;28;20055;-70
2022/08/19 08:16:36;;;;;;;15.25;10.40;;;20.00;82.10;;;;;;4953036;28;20054;-68
2022/08/19 08:19:05;;;;;;;15.45;9.93;;;20.10;81.70;;;;;;4950658;28;20055;-68
2022/08/19 08:21:34;;;;;;;17.03;10.60;;;20.10;81.60;;;;;;4954203;28;20047;-68
2022/08/19 08:24:01;;;;;;;16.85;10.23;;;20.20;81.70;;;;;;4956539;28;20783;-70
2022/08/19 08:26:28;;;;;;;18.70;11.07;;;20.30;81.60;;;;;;4971500;28;20058;-68
2022/08/19 08:28:56;;;;;;;16.13;8.13;;;20.30;81.40;;;;;;4971328;28;20111;-68
2022/08/19 08:31:23;;;;;;;16.48;10.63;;;20.40;81.20;;;;;;4953062;28;20051;-70
2022/08/19 08:33:50;;;;;;;15.07;10.73;;;20.50;80.90;;;;;;4955162;28;20080;-71
2022/08/19 08:36:17;;;;;;;18.05;11.85;;;20.50;80.70;;;;;;4972024;28;20259;-69
2022/08/19 08:38:46;;;;;;;17.80;11.27;;;20.60;80.40;;;;;;4972582;28;20154;-70
2022/08/19 08:41:22;;;;;;;20.10;12.73;;;20.70;80.00;;;;;;4938576;28;20098;-69
2022/08/19 08:43:52;;;;;;;18.38;12.07;;;20.80;79.50;;;;;;4970386;28;20126;-69
2022/08/19 08:46:26;;;;;;;19.73;12.30;;;20.80;78.50;;;;;;4971914;28;20055;-71
2022/08/19 08:48:58;;;;;;;17.98;12.77;;;20.90;78.60;;;;;;4968796;28;21997;-70
2022/08/19 08:51:35;;;;;;;17.02;10.25;;;20.90;78.10;;;;;;4952892;28;20592;-70
2022/08/19 08:54:07;;;;;;;17.40;10.93;;;21.00;77.50;;;;;;4971247;28;20059;-70
2022/08/19 08:56:33;;;;;;;18.63;11.35;;;21.00;76.90;;;;;;4957418;28;20058;-70
2022/08/19 08:59:07;;;;;;;19.27;12.20;;;21.10;76.90;;;;;;4971786;28;20061;-70
2022/08/19 09:01:34;;;;;;;18.23;11.50;;;21.10;76.50;;;;;;4953985;28;20750;-70
2022/08/19 09:04:03;;;;;;;16.42;9.88;;;21.20;76.20;;;;;;4971759;28;20058;-70
2022/08/19 09:06:41;;;;;;;20.52;10.38;;;21.30;76.40;;;;;;4954175;28;20181;-70
2022/08/19 09:09:17;;;;;;;18.23;10.07;;;21.30;75.90;;;;;;4969412;28;20051;-70
2022/08/19 09:11:54;;;;;;;22.33;11.50;;;21.40;75.40;;;;;;4974378;28;20042;-70
2022/08/19 09:14:35;;;;;;;18.52;11.05;;;21.50;75.30;;;;;;4973300;28;20377;-70
2022/08/19 09:17:03;;;;;;;17.60;11.35;;;21.50;75.20;;;;;;4951802;28;20529;-70
2022/08/19 09:19:31;;;;;;;17.13;12.18;;;21.50;75.30;;;;;;4969070;28;20047;-70
2022/08/19 09:22:00;;;;;;;13.80;9.85;;;21.60;75.30;;;;;;4953908;28;20141;-70
2022/08/19 09:24:29;;;;;;;16.17;10.17;;;21.60;74.80;;;;;;4953890;28;20058;-70
2022/08/19 09:26:56;;;;;;;15.13;10.18;;;21.70;74.40;;;;;;4953341;28;20228;-70
2022/08/19 09:29:23;;;;;;;12.90;7.97;;;21.70;73.40;;;;;;4970826;28;20465;-70
2022/08/19 09:31:50;;;;;;;13.20;9.70;;;21.70;73.50;;;;;;4953283;28;20054;-70
2022/08/19 09:34:17;;;;;;;13.32;8.60;;;21.80;72.80;;;;;;4953762;28;20047;-70
2022/08/19 09:36:44;;;;;;;13.63;9.30;;;21.90;72.00;;;;;;4964263;28;20171;-70
2022/08/19 09:39:11;;;;;;;14.18;9.88;;;21.90;72.40;;;;;;4972192;28;20278;-70
2022/08/19 09:41:39;;;;;;;14.02;8.02;;;22.00;72.30;;;;;;4940924;28;20727;-70
2022/08/19 09:44:12;;;;;;;13.00;7.70;;;22.00;72.50;;;;;;4962261;28;20078;-71
2022/08/19 09:46:39;;;;;;;12.85;9.02;;;22.10;71.90;;;;;;4976692;28;20055;-70
2022/08/19 09:49:06;;;;;;;13.17;8.30;;;22.20;71.20;;;;;;4992001;28;20989;-71
2022/08/19 09:51:34;;;;;;;15.07;8.50;;;22.20;71.20;;;;;;4974829;28;21328;-70
2022/08/19 09:54:02;;;;;;;17.40;10.30;;;22.30;71.20;;;;;;4991296;28;20051;-70
2022/08/19 09:56:30;;;;;;;14.55;9.70;;;22.30;71.50;;;;;;4973665;28;20054;-70
2022/08/19 09:59:00;;;;;;;13.60;9.02;;;22.40;71.70;;;;;;4974825;28;20055;-71
2022/08/19 10:01:29;;;;;;;12.33;8.50;;;22.50;71.80;;;;;;4954268;28;20055;-70
2022/08/19 10:03:58;;;;;;;13.73;9.23;;;22.50;71.70;;;;;;4953779;28;20285;-70
2022/08/19 10:06:32;;;;;;;14.20;10.43;;;22.60;71.50;;;;;;4971411;28;20170;-70
2022/08/19 10:08:59;;;;;;;13.18;9.68;;;22.60;70.40;;;;;;4953396;28;20051;-70
2022/08/19 10:11:27;;;;;;;11.80;8.77;;;22.60;70.10;;;;;;4971259;28;20052;-70
2022/08/19 10:13:54;;;;;;;11.50;8.10;;;22.70;70.20;;;;;;4971364;28;20079;-70
2022/08/19 10:16:25;;;;;;;15.05;9.82;;;22.70;69.30;;;;;;4953674;28;20255;-70
2022/08/19 10:18:52;;;;;;;13.40;9.52;;;22.80;68.40;;;;;;4953160;28;20060;-70
2022/08/19 10:21:22;;;;;;;13.50;9.77;;;22.90;68.20;;;;;;4953775;28;20047;-70
2022/08/19 10:23:52;;;;;;;12.88;7.85;;;22.90;68.40;;;;;;4953736;28;20059;-70
2022/08/19 10:26:21;;;;;;;14.37;9.77;;;23.00;67.90;;;;;;4953654;28;20052;-70
2022/08/19 10:28:48;;;;;;;13.48;9.57;;;23.00;68.90;;;;;;4970903;28;20279;-70
2022/08/19 10:31:19;;;;;;;14.60;10.27;;;23.10;68.30;;;;;;4954716;28;20052;-70
2022/08/19 10:33:48;;;;;;;15.82;11.32;;;23.20;68.60;;;;;;4956310;28;20062;-70
2022/08/19 10:36:18;;;;;;;13.80;9.32;;;23.20;68.60;;;;;;4945450;28;20055;-70
2022/08/19 10:38:46;;;;;;;15.43;10.73;;;23.30;68.20;;;;;;4956530;28;20055;-70
2022/08/19 10:41:17;;;;;;;15.75;10.88;;;23.40;68.30;;;;;;4954775;28;20291;-70
2022/08/19 10:43:44;;;;;;;14.50;10.82;;;23.40;68.30;;;;;;4954399;28;20059;-69
2022/08/19 10:46:13;;;;;;;11.05;6.85;;;23.50;68.00;;;;;;4954162;28;20552;-69
2022/08/19 10:48:41;;;;;;;11.75;7.15;;;23.50;66.20;;;;;;4952632;28;20500;-69
2022/08/19 10:53:56;;;;;;;11.35;7.85;;;23.60;65.90;;;;;;4955637;28;20314;-70
2022/08/19 10:59:08;;;;;;;9.35;6.10;;;23.60;64.30;;;;;;4973866;28;20047;-70
2022/08/19 11:01:35;;;;;;;13.27;8.93;;;23.60;63.90;;;;;;4974098;28;20552;-69
2022/08/19 11:04:04;;;;;;;11.57;7.93;;;23.60;64.50;;;;;;4955605;28;20138;-69
2022/08/19 11:06:33;;;;;;;12.65;8.82;;;23.70;64.50;;;;;;4973633;28;20251;-69
2022/08/19 11:09:00;;;;;;;9.52;7.43;;;23.80;64.70;;;;;;4971370;28;20084;-70
2022/08/19 11:11:28;;;;;;;12.52;8.55;;;23.80;64.50;;;;;;4955410;28;20058;-70
2022/08/19 11:13:55;;;;;;;16.33;11.02;;;23.80;65.10;;;;;;4851217;28;20846;-70
2022/08/19 11:16:25;;;;;;;17.87;11.17;;;23.80;65.60;;;;;;4954698;28;20047;-70
2022/08/19 11:18:54;;;;;;;16.83;11.32;;;23.90;65.80;;;;;;4971589;28;20694;-70
2022/08/19 11:21:25;;;;;;;14.90;11.98;;;23.90;66.20;;;;;;4939805;28;20053;-70
2022/08/19 11:23:55;;;;;;;14.35;11.55;;;23.90;66.40;;;;;;4953709;28;20055;-70
2022/08/19 11:26:24;;;;;;;17.67;12.88;;;23.90;66.60;;;;;;4952491;28;20077;-70
2022/08/19 11:28:53;;;;;;;16.27;12.20;;;24.00;67.10;;;;;;4970463;28;20138;-70
2022/08/19 11:31:23;;;;;;;20.25;14.38;;;23.90;66.40;;;;;;4954282;28;20268;-70
2022/08/19 11:33:52;;;;;;;20.95;15.45;;;24.00;66.50;;;;;;4971927;28;20494;-70
2022/08/19 11:36:20;;;;;;;19.02;13.30;;;24.00;66.90;;;;;;4954412;28;20051;-70
2022/08/19 11:38:48;;;;;;;16.42;12.23;;;24.00;67.30;;;;;;4953072;28;20498;-70
2022/08/19 11:41:18;;;;;;;15.77;12.03;;;24.00;66.60;;;;;;4955945;28;20134;-70
2022/08/19 11:43:45;;;;;;;15.88;13.38;;;24.00;65.10;;;;;;4955320;28;20291;-70
2022/08/19 11:46:15;;;;;;;15.57;12.43;;;24.00;65.00;;;;;;4973473;28;20059;-70
2022/08/19 11:48:42;;;;;;;15.52;11.93;;;24.00;64.50;;;;;;4974153;28;20046;-69
2022/08/19 11:51:11;;;;;;;14.57;11.00;;;24.00;64.30;;;;;;4992859;28;21007;-69
2022/08/19 11:53:39;;;;;;;12.90;10.30;;;24.00;65.10;;;;;;5011643;22;20515;-72
2022/08/19 11:56:07;;;;;;;9.27;6.88;;;24.00;65.50;;;;;;4992715;28;20246;-70
2022/08/19 11:58:36;;;;;;;9.50;7.20;;;24.10;63.90;;;;;;4995041;28;20169;-69
2022/08/19 12:01:07;;;;;;;8.80;7.90;;;24.20;62.70;;;;;;4978502;28;20070;-69
2022/08/19 12:03:34;;;;;;;10.95;7.10;;;24.20;63.00;;;;;;4991658;28;20086;-70
2022/08/19 12:06:05;;;;;;;11.60;8.30;;;24.20;62.50;;;;;;5002529;28;20046;-70
2022/08/19 12:08:32;;;;;;;12.13;9.65;;;24.20;62.40;;;;;;5011083;28;21062;-70
2022/08/19 12:11:00;;;;;;;10.95;7.50;;;24.30;63.50;;;;;;5002368;28;20053;-69
2022/08/19 12:13:28;;;;;;;11.35;7.90;;;24.40;62.90;;;;;;4996566;28;20115;-70
2022/08/19 12:15:56;;;;;;;8.60;5.10;;;24.40;62.10;;;;;;4985390;28;20121;-69
2022/08/19 12:18:24;;;;;;;8.10;5.57;;;24.40;62.00;;;;;;4999851;28;20092;-70
2022/08/19 12:20:54;;;;;;;10.40;7.32;;;24.50;60.50;;;;;;4979903;28;20290;-69
2022/08/19 12:23:22;;;;;;;9.50;5.82;;;24.50;60.50;;;;;;4991442;28;20054;-69
2022/08/19 12:25:51;;;;;;;9.77;6.20;;;24.60;60.30;;;;;;4998616;28;20064;-69
2022/08/19 12:28:20;;;;;;;6.20;4.45;;;24.60;59.90;;;;;;4987614;28;20050;-69
2022/08/19 12:30:47;;;;;;;6.20;4.30;;;24.70;58.90;;;;;;4981054;28;20051;-70
2022/08/19 12:33:15;;;;;;;7.50;4.50;;;24.70;57.00;;;;;;4967124;28;20275;-70
2022/08/19 12:35:46;;;;;;;9.10;5.30;;;24.70;57.00;;;;;;5002713;28;20066;-69
2022/08/19 12:38:14;;;;;;;7.00;4.75;;;24.80;57.30;;;;;;4992108;28;20101;-70
2022/08/19 12:40:41;;;;;;;6.47;4.70;;;24.80;57.30;;;;;;4987664;28;20047;-71
2022/08/19 12:43:08;;;;;;;7.50;4.57;;;24.90;57.20;;;;;;4980846;28;20129;-70
2022/08/19 12:45:35;;;;;;;7.35;5.80;;;25.00;56.40;;;;;;4984539;28;20262;-71
2022/08/19 12:48:03;;;;;;;7.07;5.22;;;25.00;57.00;;;;;;5007897;28;20098;-71
2022/08/19 12:50:31;;;;;;;9.38;5.72;;;25.00;56.90;;;;;;5000514;28;20591;-71
2022/08/19 12:52:58;;;;;;;10.05;7.00;;;25.10;55.20;;;;;;4984694;28;20485;-71
2022/08/19 12:55:27;;;;;;;8.57;6.50;;;25.20;56.30;;;;;;4999936;28;20470;-71
2022/08/19 12:57:55;;;;;;;12.45;7.38;;;25.20;56.70;;;;;;4981273;28;20297;-71
2022/08/19 13:00:23;;;;;;;7.70;5.47;;;25.30;56.90;;;;;;4983451;28;20046;-71
2022/08/19 13:02:52;;;;;;;11.10;4.90;;;25.30;56.90;;;;;;4984225;28;21077;-71
2022/08/19 13:05:23;;;;;;;8.85;5.55;;;25.40;54.30;;;;;;4999499;28;20058;-71
2022/08/19 13:07:55;;;;;;;7.73;6.10;;;25.50;54.80;;;;;;4991819;28;20051;-71